Time;durP1;ratioP1;P1;durP2;ratioP2;P2;SDS_P1;SDS_P2;PMS_P1;PMS_P2;Temp;Humidity;BMP_temperature;BMP_pressure;BME280_temperature;BME280_humidity;BME280_pressure;Samples;Min_cycle;Max_cycle;Signal;HPM_P1;HPM_P2
2023/03/13 00:01:48;;;;;;;13.10;7.10;;;;;;;9.12;41.68;99553.20;144792;1262;98100;-74
2023/03/13 00:05:12;;;;;;;14.70;8.40;;;;;;;9.11;41.69;99549.55;144824;1260;111976;-75
2023/03/13 00:08:35;;;;;;;13.80;7.80;;;;;;;9.11;41.60;99549.35;144785;1257;97912;-74
2023/03/13 00:11:56;;;;;;;14.60;7.80;;;;;;;9.09;41.71;99545.52;144840;1256;98722;-75
2023/03/13 00:15:18;;;;;;;13.00;7.60;;;;;;;9.08;41.79;99543.08;144743;1259;102152;-74
2023/03/13 00:18:45;;;;;;;13.80;8.10;;;;;;;9.08;41.71;99539.59;144958;1261;98579;-75
2023/03/13 00:22:07;;;;;;;12.90;7.50;;;;;;;9.07;41.79;99537.16;144678;1257;102180;-74
2023/03/13 00:25:29;;;;;;;13.80;7.00;;;;;;;9.07;41.83;99537.67;144708;1262;98031;-76
2023/03/13 00:28:52;;;;;;;14.90;7.70;;;;;;;9.07;41.81;99536.80;144649;1261;99219;-74
2023/03/13 00:32:14;;;;;;;13.10;7.10;;;;;;;9.06;41.82;99537.33;144986;1259;107914;-74
2023/03/13 00:35:36;;;;;;;9.20;6.50;;;;;;;9.06;41.84;99539.58;144481;1262;98786;-75
2023/03/13 00:39:00;;;;;;;14.00;6.70;;;;;;;9.06;41.69;99542.17;144878;1260;97998;-77
2023/03/13 00:42:21;;;;;;;11.20;7.00;;;;;;;9.06;41.74;99541.48;144777;1261;98008;-75
2023/03/13 00:45:43;;;;;;;15.00;7.50;;;;;;;9.07;41.79;99543.05;144680;1269;97909;-74
2023/03/13 00:49:05;;;;;;;8.50;5.80;;;;;;;9.08;41.72;99529.01;144760;1257;99251;-79
2023/03/13 00:52:27;;;;;;;8.60;5.80;;;;;;;9.08;41.74;99530.77;144864;1257;98074;-75
2023/03/13 00:55:52;;;;;;;8.00;6.60;;;;;;;9.09;41.76;99531.65;144884;1257;97871;-75
2023/03/13 00:59:14;;;;;;;10.00;5.90;;;;;;;9.09;41.72;99528.54;144535;1260;97970;-74
2023/03/13 01:02:40;;;;;;;9.10;5.50;;;;;;;9.10;41.73;99529.76;144790;1260;97998;-75
2023/03/13 01:06:05;;;;;;;10.20;6.10;;;;;;;9.11;41.80;99517.81;144837;1261;98696;-73
2023/03/13 01:09:27;;;;;;;8.60;5.50;;;;;;;9.12;41.91;99514.02;145187;1260;97918;-75
2023/03/13 01:12:49;;;;;;;8.00;5.00;;;;;;;9.13;41.77;99506.05;145073;1259;98106;-75
2023/03/13 01:16:17;;;;;;;7.10;4.90;;;;;;;9.14;41.84;99498.45;145079;1261;97929;-74
2023/03/13 01:19:39;;;;;;;8.10;5.40;;;;;;;9.16;41.89;99490.16;144882;1256;110752;-75
2023/03/13 01:23:02;;;;;;;8.30;5.90;;;;;;;9.16;41.92;99485.65;145049;1272;97912;-74
2023/03/13 01:26:24;;;;;;;9.30;5.40;;;;;;;9.18;42.01;99489.14;144996;1257;98631;-74
2023/03/13 01:29:47;;;;;;;9.40;5.40;;;;;;;9.19;41.98;99490.55;144926;1260;103117;-73
2023/03/13 01:33:09;;;;;;;9.60;5.30;;;;;;;9.20;41.86;99482.92;145088;1256;97947;-73
2023/03/13 01:36:31;;;;;;;6.90;4.80;;;;;;;9.20;41.92;99480.67;144581;1260;98855;-75
2023/03/13 01:39:53;;;;;;;5.30;4.80;;;;;;;9.21;41.89;99476.88;145266;1259;108514;-73
2023/03/13 01:43:19;;;;;;;5.50;4.40;;;;;;;9.21;41.89;99473.94;144958;1256;101509;-77
2023/03/13 01:46:51;;;;;;;11.50;5.30;;;;;;;9.20;41.83;99461.61;144901;1257;98818;-76
2023/03/13 01:50:19;;;;;;;7.00;4.80;;;;;;;9.20;41.77;99459.02;144893;1257;98141;-75
2023/03/13 01:54:17;;;;;;;5.90;4.40;;;;;;;9.20;41.87;99451.38;144923;1258;97995;-75
2023/03/13 01:57:42;;;;;;;9.00;4.50;;;;;;;9.19;41.85;99444.78;145034;1262;98832;-74
2023/03/13 02:01:04;;;;;;;8.50;4.90;;;;;;;9.18;41.93;99448.06;144746;1262;99200;-74
2023/03/13 02:04:30;;;;;;;7.60;4.80;;;;;;;9.18;42.08;99449.80;144906;1262;98811;-76
2023/03/13 02:08:23;;;;;;;9.60;4.60;;;;;;;9.18;41.90;99450.84;144844;1260;99257;-75
2023/03/13 02:12:04;;;;;;;7.50;4.20;;;;;;;9.18;42.03;99445.64;144943;1261;98011;-75
2023/03/13 02:15:26;;;;;;;6.60;4.30;;;;;;;9.15;41.97;99440.92;144831;1257;98817;-76
2023/03/13 02:18:48;;;;;;;6.90;4.40;;;;;;;9.13;41.87;99439.31;144665;1272;98042;-75
2023/03/13 02:22:28;;;;;;;6.70;4.70;;;;;;;9.11;41.96;99434.61;145302;1260;97909;-74
2023/03/13 02:25:52;;;;;;;5.50;4.20;;;;;;;9.10;42.03;99435.98;144770;1263;97952;-73
2023/03/13 02:29:17;;;;;;;5.80;4.00;;;;;;;9.09;41.93;99436.15;144695;1256;97921;-73
2023/03/13 02:32:40;;;;;;;7.20;5.20;;;;;;;9.08;42.03;99440.80;144923;1257;98095;-77
2023/03/13 02:36:02;;;;;;;6.20;4.80;;;;;;;9.06;42.11;99439.56;144977;1263;98085;-74
2023/03/13 02:39:24;;;;;;;6.90;5.80;;;;;;;9.06;42.04;99439.91;144938;1260;112020;-76
2023/03/13 02:42:47;;;;;;;7.00;4.50;;;;;;;9.06;42.05;99438.36;144720;1257;98011;-74
2023/03/13 02:46:16;;;;;;;8.00;4.60;;;;;;;9.07;42.24;99433.67;144774;1257;98036;-75
2023/03/13 02:49:39;;;;;;;8.90;4.70;;;;;;;9.07;42.21;99434.38;144703;1262;111909;-74
2023/03/13 02:53:04;;;;;;;5.30;4.20;;;;;;;9.08;42.23;99434.21;145024;1260;97960;-73
2023/03/13 02:56:28;;;;;;;6.10;5.10;;;;;;;9.06;42.31;99431.08;144822;1256;97893;-74
2023/03/13 02:59:50;;;;;;;6.80;5.10;;;;;;;9.05;42.33;99432.63;144929;1260;112081;-75
2023/03/13 03:03:12;;;;;;;6.20;4.20;;;;;;;9.05;42.33;99433.31;145106;1257;98089;-74
2023/03/13 03:06:34;;;;;;;6.50;4.40;;;;;;;9.06;42.45;99436.79;144980;1257;97958;-74
2023/03/13 03:09:57;;;;;;;6.40;4.90;;;;;;;9.06;42.43;99439.05;144931;1259;103364;-73
2023/03/13 03:13:18;;;;;;;8.00;5.20;;;;;;;9.06;42.40;99443.20;144886;1257;97954;-75
2023/03/13 03:16:40;;;;;;;9.90;5.20;;;;;;;9.05;42.33;99439.03;144968;1260;99137;-75
2023/03/13 03:20:06;;;;;;;7.70;5.10;;;;;;;9.06;42.47;99437.48;144709;1262;108266;-74
2023/03/13 03:23:28;;;;;;;6.00;4.60;;;;;;;9.05;42.68;99433.67;144842;1263;108402;-74
2023/03/13 03:26:50;;;;;;;10.50;5.60;;;;;;;9.06;42.56;99428.47;144962;1260;97973;-76
2023/03/13 03:30:17;;;;;;;9.70;5.00;;;;;;;9.05;42.77;99433.14;145079;1260;108398;-73
2023/03/13 03:33:40;;;;;;;8.40;4.90;;;;;;;9.05;42.73;99431.42;144505;1262;98378;-75
2023/03/13 03:37:04;;;;;;;5.90;5.00;;;;;;;9.05;42.82;99437.13;144937;1259;108400;-74
2023/03/13 03:40:26;;;;;;;10.30;5.40;;;;;;;9.05;42.65;99427.27;144973;1261;97989;-75
2023/03/13 03:43:49;;;;;;;6.10;4.30;;;;;;;9.04;42.88;99424.98;145120;1256;97920;-73
2023/03/13 03:47:13;;;;;;;6.70;5.20;;;;;;;9.05;42.82;99426.39;144835;1262;99204;-77
2023/03/13 03:50:38;;;;;;;8.10;5.10;;;;;;;9.04;42.85;99432.61;144711;1258;97993;-74
2023/03/13 03:54:00;;;;;;;6.60;4.80;;;;;;;9.03;42.97;99426.00;145047;1257;97918;-74
2023/03/13 03:57:23;;;;;;;6.70;5.00;;;;;;;9.02;42.87;99417.68;144880;1257;98005;-74
2023/03/13 04:00:46;;;;;;;8.10;4.90;;;;;;;8.99;42.83;99413.83;144924;1257;97942;-75
2023/03/13 04:04:08;;;;;;;8.60;5.50;;;;;;;8.93;42.93;99411.48;144807;1262;97996;-73
2023/03/13 04:07:32;;;;;;;13.10;7.90;;;;;;;8.90;43.04;99405.02;144691;1263;99229;-73
2023/03/13 04:10:54;;;;;;;10.30;6.90;;;;;;;8.91;43.05;99402.27;144943;1262;97951;-75
2023/03/13 04:14:17;;;;;;;12.30;7.30;;;;;;;8.92;43.17;99399.85;144770;1259;97981;-76
2023/03/13 04:17:39;;;;;;;8.70;6.20;;;;;;;8.92;43.11;99401.08;145016;1261;97913;-74
2023/03/13 04:21:04;;;;;;;9.10;6.60;;;;;;;8.92;43.33;99394.48;145201;1261;111892;-73
2023/03/13 04:24:43;;;;;;;10.50;6.30;;;;;;;8.93;43.41;99386.86;144785;1260;112030;-74
2023/03/13 04:28:05;;;;;;;11.00;6.30;;;;;;;8.93;43.46;99383.58;145105;1261;99108;-74
2023/03/13 04:31:32;;;;;;;8.00;6.00;;;;;;;8.93;43.58;99374.39;144898;1272;111942;-74
2023/03/13 04:35:10;;;;;;;10.20;5.40;;;;;;;8.93;43.52;99373.17;145143;1257;111998;-74
2023/03/13 04:38:50;;;;;;;8.30;5.50;;;;;;;8.93;43.63;99360.01;144873;1257;111349;-73
2023/03/13 04:42:31;;;;;;;8.60;5.60;;;;;;;8.93;43.75;99357.75;144950;1259;112603;-75
2023/03/13 04:46:04;;;;;;;7.10;5.00;;;;;;;8.92;43.74;99353.75;144995;1257;112020;-74
2023/03/13 04:49:52;;;;;;;9.90;6.00;;;;;;;8.90;43.87;99354.94;144973;1259;112601;-73
2023/03/13 04:53:38;;;;;;;8.60;5.70;;;;;;;8.90;44.23;99356.33;144731;1261;112036;-75
2023/03/13 04:57:12;;;;;;;11.50;6.10;;;;;;;8.90;44.06;99351.30;144940;1262;110922;-73
2023/03/13 05:00:55;;;;;;;6.70;5.90;;;;;;;8.90;44.23;99347.66;144846;1257;111623;-74
2023/03/13 05:04:35;;;;;;;9.70;5.20;;;;;;;8.89;44.21;99345.23;144878;1257;150760;-74
2023/03/13 05:08:20;;;;;;;12.20;5.50;;;;;;;8.90;44.39;99337.09;144863;1257;112683;-75
2023/03/13 05:11:55;;;;;;;11.70;5.70;;;;;;;8.91;44.49;99337.27;145090;1257;112109;-73
2023/03/13 05:15:37;;;;;;;7.50;6.00;;;;;;;8.91;44.53;99335.73;144887;1262;110787;-73
2023/03/13 05:19:25;;;;;;;7.00;6.10;;;;;;;8.93;44.60;99330.02;144981;1257;112549;-73
2023/03/13 05:23:10;;;;;;;8.60;5.60;;;;;;;8.93;44.56;99327.61;144560;1257;112092;-74
2023/03/13 05:26:54;;;;;;;7.20;5.50;;;;;;;8.94;44.91;99333.34;144950;1258;112021;-73
2023/03/13 05:30:25;;;;;;;5.70;5.10;;;;;;;8.95;44.77;99340.81;144920;1257;110852;-75
2023/03/13 05:34:06;;;;;;;10.80;6.70;;;;;;;8.95;44.94;99336.30;144880;1260;112668;-73
2023/03/13 05:37:46;;;;;;;8.80;5.90;;;;;;;8.96;45.11;99332.33;144816;1260;112039;-73
2023/03/13 05:41:43;;;;;;;8.20;5.30;;;;;;;8.98;45.16;99330.44;145024;1262;111119;-73
2023/03/13 05:45:11;;;;;;;7.50;4.90;;;;;;;9.00;45.23;99336.37;144722;1257;110449;-75
2023/03/13 05:48:57;;;;;;;9.80;6.30;;;;;;;9.03;45.39;99341.42;144958;1262;112037;-74
2023/03/13 05:52:38;;;;;;;10.20;5.40;;;;;;;9.03;45.36;99346.45;144834;1262;112176;-74
2023/03/13 05:56:00;;;;;;;6.90;5.90;;;;;;;9.04;45.43;99342.13;144994;1261;97989;-75
2023/03/13 05:59:40;;;;;;;6.30;5.40;;;;;;;9.04;45.65;99340.73;144961;1262;111068;-74
2023/03/13 06:03:21;;;;;;;9.10;5.10;;;;;;;9.02;45.75;99340.03;145020;1257;111305;-75
2023/03/13 06:06:45;;;;;;;8.10;5.60;;;;;;;9.03;45.91;99333.80;144913;1262;111989;-75
2023/03/13 06:10:09;;;;;;;7.20;5.00;;;;;;;9.04;45.85;99330.68;144810;1273;112195;-76
2023/03/13 06:13:32;;;;;;;7.30;4.90;;;;;;;9.05;45.98;99329.15;144951;1262;97925;-75
2023/03/13 06:17:01;;;;;;;7.30;4.60;;;;;;;9.08;46.18;99327.62;144802;1262;111772;-76
2023/03/13 06:20:23;;;;;;;7.30;5.10;;;;;;;9.09;46.08;99323.31;145077;1262;98654;-74
2023/03/13 06:23:45;;;;;;;8.80;5.80;;;;;;;9.12;46.24;99324.05;145278;1262;97909;-76
2023/03/13 06:27:10;;;;;;;11.30;6.30;;;;;;;9.14;46.34;99322.66;145238;1261;101396;-73
2023/03/13 06:30:31;;;;;;;6.90;5.50;;;;;;;9.15;46.64;99321.65;144639;1261;98357;-73
2023/03/13 06:33:54;;;;;;;8.50;5.80;;;;;;;9.17;46.50;99320.27;145160;1262;99344;-75
2023/03/13 06:37:15;;;;;;;8.50;5.30;;;;;;;9.18;46.62;99321.00;144927;1257;107994;-74
2023/03/13 06:40:37;;;;;;;7.40;5.80;;;;;;;9.19;46.85;99320.14;145110;1261;97995;-74
2023/03/13 06:43:59;;;;;;;5.90;5.30;;;;;;;9.22;46.81;99322.08;145168;1261;98791;-74
2023/03/13 06:47:20;;;;;;;7.90;4.90;;;;;;;9.24;46.73;99327.81;145126;1261;97945;-75
2023/03/13 06:50:42;;;;;;;7.70;5.80;;;;;;;9.26;46.92;99324.73;145361;1256;97932;-74
2023/03/13 06:54:04;;;;;;;9.40;5.10;;;;;;;9.28;47.08;99316.08;145044;1259;98022;-73
2023/03/13 06:57:26;;;;;;;7.20;6.00;;;;;;;9.28;46.95;99314.00;144786;1262;97919;-78
2023/03/13 07:00:48;;;;;;;8.30;5.70;;;;;;;9.27;47.08;99311.04;145185;1257;97955;-74
2023/03/13 07:04:11;;;;;;;8.50;5.50;;;;;;;9.29;47.27;99311.23;145182;1270;99450;-77
2023/03/13 07:07:36;;;;;;;6.90;5.30;;;;;;;9.33;47.17;99307.46;145268;1260;111150;-75
2023/03/13 07:11:00;;;;;;;8.00;5.90;;;;;;;9.37;47.21;99304.23;145116;1259;110965;-75
2023/03/13 07:14:21;;;;;;;11.20;5.00;;;;;;;9.43;47.31;99301.15;145350;1260;111175;-75
2023/03/13 07:17:43;;;;;;;6.70;5.40;;;;;;;9.49;47.22;99304.17;145286;1257;98024;-74
2023/03/13 07:21:05;;;;;;;6.80;5.40;;;;;;;9.52;47.30;99300.74;145275;1257;97956;-74
2023/03/13 07:24:27;;;;;;;5.50;5.00;;;;;;;9.54;47.29;99300.06;145139;1259;102258;-75
2023/03/13 07:27:51;;;;;;;8.00;5.60;;;;;;;9.57;47.38;99298.88;145272;1257;97956;-75
2023/03/13 07:31:20;;;;;;;8.50;5.50;;;;;;;9.60;47.33;99299.44;145220;1260;98321;-74
2023/03/13 07:34:45;;;;;;;8.60;5.40;;;;;;;9.63;47.33;99294.60;145042;1260;102372;-75
2023/03/13 07:38:07;;;;;;;6.40;5.00;;;;;;;9.66;47.34;99291.50;145138;1260;102131;-73
2023/03/13 07:41:29;;;;;;;6.40;5.40;;;;;;;9.68;47.47;99282.86;145370;1257;98808;-75
2023/03/13 07:44:52;;;;;;;6.30;4.80;;;;;;;9.76;47.49;99276.52;144990;1270;97934;-74
2023/03/13 07:48:13;;;;;;;7.30;6.10;;;;;;;9.87;47.48;99270.89;145104;1262;107369;-73
2023/03/13 07:51:35;;;;;;;8.80;5.00;;;;;;;9.96;47.11;99274.42;145124;1257;97989;-74
2023/03/13 07:55:04;;;;;;;;;;;;;;;10.02;47.16;99271.52;145319;1262;101494;-79
2023/03/13 07:58:31;;;;;;;7.30;4.80;;;;;;;10.08;47.16;99275.40;145125;1257;97912;-78
2023/03/13 08:01:53;;;;;;;7.20;4.90;;;;;;;10.16;47.28;99272.15;145255;1260;97921;-78
2023/03/13 08:05:15;;;;;;;9.40;5.50;;;;;;;10.26;46.99;99271.91;145354;1262;97935;-79
2023/03/13 08:08:38;;;;;;;7.20;4.90;;;;;;;10.36;47.07;99262.42;145204;1263;97922;-79
2023/03/13 08:11:59;;;;;;;6.80;4.50;;;;;;;10.46;47.01;99255.19;145127;1260;98024;-78
2023/03/13 08:15:24;;;;;;;7.70;5.00;;;;;;;10.55;46.96;99256.64;145106;1257;98034;-80
2023/03/13 08:18:49;;;;;;;6.20;4.70;;;;;;;10.63;46.96;99253.55;145121;1257;97909;-81
2023/03/13 08:22:11;;;;;;;7.30;4.80;;;;;;;10.70;46.53;99257.41;145211;1257;97908;-83
2023/03/13 08:25:32;;;;;;;5.10;4.00;;;;;;;10.75;46.64;99259.88;145294;1262;97998;-81
2023/03/13 08:29:05;;;;;;;8.80;5.00;;;;;;;10.79;46.41;99263.02;145274;1259;97938;-75
2023/03/13 08:32:27;;;;;;;6.30;4.80;;;;;;;10.82;46.32;99261.13;144881;1270;110169;-76
2023/03/13 08:35:49;;;;;;;7.80;4.40;;;;;;;10.84;46.50;99262.18;145315;1270;97912;-82
2023/03/13 08:39:13;;;;;;;6.10;4.30;;;;;;;10.88;46.26;99252.98;145213;1263;98433;-81
2023/03/13 08:42:36;;;;;;;10.20;5.00;;;;;;;10.93;46.40;99254.74;145390;1260;102209;-82
2023/03/13 08:45:58;;;;;;;8.60;4.40;;;;;;;10.96;46.48;99247.80;145775;1260;97909;-84
2023/03/13 08:49:19;;;;;;;7.40;4.30;;;;;;;10.99;46.08;99241.20;145554;1260;98494;-83
2023/03/13 08:52:43;;;;;;;8.00;4.10;;;;;;;11.04;46.00;99234.44;145514;1260;106553;-85
2023/03/13 08:56:06;;;;;;;6.80;4.10;;;;;;;11.08;46.23;99223.33;145308;1262;107281;-81
2023/03/13 08:59:30;;;;;;;8.50;4.90;;;;;;;11.22;46.45;99215.02;145295;1264;107464;-80
2023/03/13 09:02:51;;;;;;;8.80;4.20;;;;;;;11.51;46.45;99204.27;145227;1263;98011;-81
2023/03/13 09:06:13;;;;;;;9.30;4.50;;;;;;;12.05;47.16;99192.80;145805;1260;99102;-88
2023/03/13 09:09:35;;;;;;;5.70;4.40;;;;;;;12.48;47.22;99194.63;145920;1261;99235;-87
2023/03/13 09:12:57;;;;;;;8.20;4.50;;;;;;;12.81;46.86;99190.83;145765;1260;97993;-84
2023/03/13 09:16:21;;;;;;;6.20;4.20;;;;;;;13.18;46.66;99180.02;145538;1260;97947;-81
2023/03/13 09:19:43;;;;;;;7.00;4.40;;;;;;;13.59;46.70;99167.00;145334;1257;97910;-79
2023/03/13 09:23:21;;;;;;;12.90;5.50;;;;;;;13.84;46.82;99161.37;145049;1260;99338;-80
2023/03/13 09:26:42;;;;;;;10.00;4.30;;;;;;;14.10;46.62;99156.73;145627;1260;97922;-80
2023/03/13 09:30:21;;;;;;;12.70;4.30;;;;;;;14.43;46.39;99154.81;145274;1262;97905;-88
2023/03/13 09:33:44;;;;;;;7.40;3.30;;;;;;;14.63;45.97;99149.35;144754;1261;99190;-79
2023/03/13 09:37:06;;;;;;;9.40;3.70;;;;;;;14.63;45.92;99148.83;145127;1260;97995;-78
2023/03/13 09:40:27;;;;;;;7.10;3.30;;;;;;;14.71;45.94;99146.81;144718;1263;110712;-80
2023/03/13 09:44:11;;;;;;;7.40;3.80;;;;;;;14.77;45.66;99144.63;145147;1257;98374;-80
2023/03/13 09:47:49;;;;;;;9.30;4.30;;;;;;;14.99;45.70;99142.40;144957;1262;111212;-80
2023/03/13 09:51:20;;;;;;;9.00;5.20;;;;;;;14.98;45.40;99138.39;144877;1270;112224;-79
2023/03/13 09:54:58;;;;;;;4.20;3.10;;;;;;;14.70;45.53;99133.54;144801;1266;110971;-78
2023/03/13 09:58:23;;;;;;;8.10;3.40;;;;;;;14.50;45.83;99125.21;144852;1271;109478;-79
2023/03/13 10:01:46;;;;;;;5.10;3.70;;;;;;;14.52;46.14;99115.22;144873;1263;111122;-79
2023/03/13 10:05:08;;;;;;;6.80;3.20;;;;;;;14.54;46.08;99111.71;144785;1262;99188;-79
2023/03/13 10:08:32;;;;;;;11.00;3.50;;;;;;;14.46;46.28;99108.11;144762;1256;98820;-79
2023/03/13 10:12:17;;;;;;;5.70;3.50;;;;;;;14.42;46.29;99106.06;144877;1260;99230;-78
2023/03/13 10:15:54;;;;;;;7.80;3.00;;;;;;;14.39;46.53;99106.61;144951;1260;110934;-79
2023/03/13 10:19:18;;;;;;;6.00;3.00;;;;;;;14.36;46.40;99107.35;144789;1266;109763;-80
2023/03/13 10:22:45;;;;;;;9.50;2.60;;;;;;;14.26;46.58;99104.67;144815;1257;110139;-79
2023/03/13 10:26:16;;;;;;;19.00;3.80;;;;;;;14.14;46.73;99105.34;144849;1260;111124;-80
2023/03/13 10:29:38;;;;;;;4.20;3.10;;;;;;;14.04;46.97;99108.95;144881;1262;112033;-80
2023/03/13 10:33:15;;;;;;;9.20;3.50;;;;;;;13.92;47.10;99104.70;144736;1264;97912;-79
2023/03/13 10:36:48;;;;;;;9.10;2.90;;;;;;;13.90;47.33;99098.45;144837;1260;111300;-81
2023/03/13 10:40:24;;;;;;;9.40;4.20;;;;;;;13.77;47.42;99094.36;144850;1264;111910;-79
2023/03/13 10:43:51;;;;;;;8.00;2.90;;;;;;;13.67;47.82;99084.70;145012;1260;112020;-79
2023/03/13 10:47:13;;;;;;;6.40;2.90;;;;;;;13.56;48.20;99078.70;145005;1263;112225;-79
2023/03/13 10:50:35;;;;;;;8.00;3.30;;;;;;;13.57;48.53;99071.88;145012;1270;98869;-78
2023/03/13 10:53:57;;;;;;;11.20;3.80;;;;;;;13.50;48.69;99065.65;144964;1260;97960;-78
2023/03/13 10:57:35;;;;;;;8.70;2.90;;;;;;;13.44;49.10;99059.59;144925;1260;102105;-82
2023/03/13 11:01:16;;;;;;;7.70;2.80;;;;;;;13.34;49.33;99049.58;145430;1269;101718;-80
2023/03/13 11:04:38;;;;;;;7.40;2.60;;;;;;;13.32;49.58;99039.81;145229;1262;102548;-80
2023/03/13 11:08:21;;;;;;;9.50;2.80;;;;;;;13.38;49.71;99040.83;144997;1262;98088;-80
2023/03/13 11:12:09;;;;;;;8.70;2.70;;;;;;;13.44;49.61;99035.17;145172;1258;102238;-80
2023/03/13 11:15:45;;;;;;;6.80;3.40;;;;;;;13.47;49.62;99024.50;145076;1258;102016;-79
2023/03/13 11:19:28;;;;;;;10.70;2.80;;;;;;;13.59;50.37;99024.71;145108;1263;101360;-78
2023/03/13 11:22:59;;;;;;;7.90;3.00;;;;;;;13.86;50.02;99019.55;144982;1260;102181;-79
2023/03/13 11:27:01;;;;;;;8.40;3.60;;;;;;;14.01;49.59;99007.30;144831;1269;101200;-79
2023/03/13 11:31:03;;;;;;;6.80;3.10;;;;;;;14.09;49.02;98990.44;144586;1258;102167;-78
2023/03/13 11:34:45;;;;;;;8.90;3.00;;;;;;;14.22;48.87;98970.35;144725;1269;102198;-78
2023/03/13 11:38:20;;;;;;;7.30;2.70;;;;;;;14.42;48.46;98962.38;144925;1263;102117;-79
2023/03/13 11:41:42;;;;;;;5.60;2.60;;;;;;;14.62;48.14;98953.02;144762;1269;102201;-79
2023/03/13 11:45:13;;;;;;;6.60;2.10;;;;;;;14.87;47.85;98952.24;144953;1264;97962;-79
2023/03/13 11:48:50;;;;;;;6.10;2.90;;;;;;;15.13;47.56;98941.33;144963;1262;101171;-77
2023/03/13 11:52:23;;;;;;;5.30;2.60;;;;;;;15.40;47.07;98934.86;144783;1258;102163;-77
2023/03/13 11:55:50;;;;;;;5.10;2.70;;;;;;;15.46;46.73;98936.15;145115;1258;103106;-79
2023/03/13 11:59:21;;;;;;;11.70;3.00;;;;;;;15.46;46.47;98931.08;144900;1260;101546;-78
2023/03/13 12:03:03;;;;;;;7.60;3.10;;;;;;;15.29;46.44;98933.16;144909;1261;102197;-78
2023/03/13 12:06:30;;;;;;;10.00;2.80;;;;;;;15.16;46.39;98927.63;144982;1260;102464;-78
2023/03/13 12:09:59;;;;;;;12.60;2.90;;;;;;;15.00;46.38;98925.63;145518;1257;102209;-76
2023/03/13 12:13:34;;;;;;;12.30;3.20;;;;;;;14.86;46.68;98924.46;145442;1260;101057;-81
2023/03/13 12:17:00;;;;;;;9.60;3.10;;;;;;;14.82;46.67;98924.18;144681;1270;101893;-79
2023/03/13 12:20:26;;;;;;;6.90;3.30;;;;;;;14.72;46.67;98922.95;145204;1260;102229;-80
2023/03/13 12:23:54;;;;;;;9.20;3.20;;;;;;;14.58;46.98;98921.61;144907;1260;102142;-78
2023/03/13 12:27:50;;;;;;;10.00;3.10;;;;;;;14.51;47.20;98911.92;145072;1261;103046;-78
2023/03/13 12:31:35;;;;;;;8.80;4.20;;;;;;;14.47;47.32;98906.89;144176;1271;101975;-81
2023/03/13 12:35:19;;;;;;;12.20;3.20;;;;;;;14.41;47.55;98903.30;144163;1268;101995;-79
2023/03/13 12:38:57;;;;;;;10.70;2.80;;;;;;;14.34;47.67;98896.45;144221;1270;102277;-78
2023/03/13 12:42:38;;;;;;;10.50;2.70;;;;;;;14.27;47.81;98895.85;144326;1270;101929;-77
2023/03/13 12:46:00;;;;;;;10.40;2.70;;;;;;;14.20;48.25;98895.25;143937;1269;101457;-77
2023/03/13 12:49:31;;;;;;;5.80;2.60;;;;;;;14.16;48.45;98889.02;144061;1264;98112;-78
2023/03/13 12:53:26;;;;;;;10.80;2.90;;;;;;;14.17;48.69;98884.45;144269;1269;102198;-79
2023/03/13 12:56:54;;;;;;;11.00;3.30;;;;;;;14.10;48.87;98881.94;144332;1270;101575;-79
2023/03/13 13:00:20;;;;;;;13.30;3.90;;;;;;;14.02;49.30;98879.80;144365;1270;101235;-79
2023/03/13 13:03:56;;;;;;;6.20;3.30;;;;;;;13.94;49.63;98871.52;144331;1269;101973;-78
2023/03/13 13:07:25;;;;;;;9.10;3.20;;;;;;;13.82;49.96;98869.42;144513;1270;103039;-79
2023/03/13 13:10:50;;;;;;;6.10;2.80;;;;;;;13.73;50.42;98869.38;144667;1266;102170;-78
2023/03/13 13:14:17;;;;;;;9.50;3.40;;;;;;;13.62;50.93;98864.10;144733;1261;97954;-78
2023/03/13 13:18:13;;;;;;;8.70;3.10;;;;;;;13.54;51.33;98857.75;144963;1257;102166;-80
2023/03/13 13:21:36;;;;;;;6.80;3.20;;;;;;;13.46;51.91;98848.41;145092;1257;101204;-79
2023/03/13 13:25:04;;;;;;;10.20;3.50;;;;;;;13.41;52.32;98848.13;144971;1257;101463;-79
2023/03/13 13:28:33;;;;;;;14.10;3.90;;;;;;;13.32;52.83;98842.66;145262;1264;102222;-79
2023/03/13 13:32:00;;;;;;;9.50;3.40;;;;;;;13.22;53.24;98840.31;144690;1260;102380;-78
2023/03/13 13:35:33;;;;;;;8.40;3.60;;;;;;;13.14;53.72;98830.63;145138;1260;102132;-78
2023/03/13 13:38:58;;;;;;;8.60;3.20;;;;;;;13.06;54.16;98829.85;144743;1264;101894;-78
2023/03/13 13:42:31;;;;;;;6.80;3.20;;;;;;;12.94;54.52;98827.38;144955;1257;102108;-79
2023/03/13 13:46:13;;;;;;;16.60;4.20;;;;;;;12.84;55.12;98827.65;145023;1260;101921;-79
2023/03/13 13:49:51;;;;;;;10.80;3.80;;;;;;;12.72;55.54;98823.92;144750;1261;102091;-79
2023/03/13 13:53:30;;;;;;;14.50;4.50;;;;;;;12.66;56.24;98821.19;144636;1270;102143;-79
2023/03/13 13:57:01;;;;;;;12.70;3.40;;;;;;;12.60;56.52;98818.65;144681;1261;101485;-80
2023/03/13 14:00:28;;;;;;;7.20;2.60;;;;;;;12.58;57.07;98820.94;144937;1260;102335;-79
2023/03/13 14:03:53;;;;;;;9.10;3.10;;;;;;;12.60;57.49;98817.09;144882;1261;102231;-78
2023/03/13 14:07:31;;;;;;;8.50;3.10;;;;;;;12.53;57.86;98800.94;145168;1260;101510;-79
2023/03/13 14:11:03;;;;;;;6.00;2.10;;;;;;;12.45;58.20;98795.09;145152;1257;102362;-80
2023/03/13 14:14:25;;;;;;;7.90;2.40;;;;;;;12.41;58.31;98795.48;144963;1262;103548;-79
2023/03/13 14:17:59;;;;;;;11.40;3.30;;;;;;;12.37;58.72;98784.19;144783;1261;97959;-78
2023/03/13 14:21:23;;;;;;;8.80;2.80;;;;;;;12.33;58.67;98780.91;144844;1257;101476;-79
2023/03/13 14:24:56;;;;;;;7.60;3.40;;;;;;;12.31;58.79;98773.96;145271;1257;103069;-82
2023/03/13 14:28:24;;;;;;;6.90;2.80;;;;;;;12.25;58.98;98761.99;145060;1257;102071;-80
2023/03/13 14:31:51;;;;;;;15.00;3.30;;;;;;;12.20;59.27;98755.26;144723;1270;104028;-79
2023/03/13 14:35:18;;;;;;;9.50;2.50;;;;;;;12.14;59.35;98757.05;145003;1257;99950;-80
2023/03/13 14:39:00;;;;;;;11.10;2.50;;;;;;;12.08;59.47;98742.13;145269;1257;102300;-79
2023/03/13 14:42:22;;;;;;;11.20;3.00;;;;;;;12.01;59.58;98723.73;145227;1260;102120;-78
2023/03/13 14:45:44;;;;;;;11.50;2.90;;;;;;;11.94;59.80;98719.60;144967;1261;99025;-79
2023/03/13 14:49:13;;;;;;;10.30;2.90;;;;;;;11.94;60.15;98717.88;144937;1257;98332;-78
2023/03/13 14:52:38;;;;;;;14.80;3.00;;;;;;;11.90;60.28;98711.30;145390;1257;108072;-79
2023/03/13 14:56:17;;;;;;;9.00;2.80;;;;;;;11.87;60.69;98702.09;145237;1260;108601;-79
2023/03/13 14:59:42;;;;;;;11.70;3.60;;;;;;;11.83;60.91;98700.71;145474;1256;107499;-79
2023/03/13 15:03:17;;;;;;;10.70;3.70;;;;;;;11.82;60.95;98706.80;145188;1257;97925;-79
2023/03/13 15:06:39;;;;;;;8.50;3.00;;;;;;;11.90;60.96;98711.98;145288;1260;107057;-78
2023/03/13 15:10:16;;;;;;;9.00;4.00;;;;;;;11.91;60.95;98705.53;144839;1260;97907;-81
2023/03/13 15:13:40;;;;;;;6.00;2.40;;;;;;;11.96;60.95;98703.59;145313;1257;107559;-79
2023/03/13 15:17:03;;;;;;;8.30;3.20;;;;;;;11.97;61.15;98703.92;145183;1257;98808;-82
2023/03/13 15:20:25;;;;;;;6.60;2.50;;;;;;;11.99;60.90;98707.91;145396;1258;99100;-79
2023/03/13 15:23:57;;;;;;;7.20;2.20;;;;;;;12.00;60.83;98701.63;145189;1260;99245;-80
2023/03/13 15:27:22;;;;;;;9.10;3.20;;;;;;;12.00;60.76;98693.79;144841;1257;97947;-79
2023/03/13 15:30:46;;;;;;;7.50;3.50;;;;;;;11.98;60.76;98689.30;145217;1258;97950;-79
2023/03/13 15:34:12;;;;;;;5.70;2.10;;;;;;;11.96;60.95;98690.35;145239;1260;98998;-79
2023/03/13 15:37:35;;;;;;;3.10;1.60;;;;;;;11.90;60.86;98692.49;145381;1260;97926;-79
2023/03/13 15:40:57;;;;;;;6.20;2.80;;;;;;;11.87;60.97;98684.86;145272;1258;98271;-79
2023/03/13 15:44:19;;;;;;;6.70;2.50;;;;;;;11.89;60.81;98682.92;145202;1257;98905;-80
2023/03/13 15:47:41;;;;;;;4.40;2.00;;;;;;;11.88;60.92;98680.85;144959;1261;97937;-80
2023/03/13 15:51:03;;;;;;;10.30;3.10;;;;;;;11.86;61.00;98676.52;145164;1257;97927;-78
2023/03/13 15:54:39;;;;;;;8.00;2.30;;;;;;;11.89;61.17;98686.23;144666;1256;99757;-76
2023/03/13 15:58:01;;;;;;;4.90;1.90;;;;;;;12.08;60.89;98690.59;144660;1263;97997;-76
2023/03/13 16:01:23;;;;;;;6.80;3.40;;;;;;;12.29;60.62;98690.02;144716;1256;98831;-76
2023/03/13 16:04:45;;;;;;;6.70;2.20;;;;;;;12.45;60.25;98684.80;144994;1258;111043;-76
2023/03/13 16:08:30;;;;;;;12.90;3.00;;;;;;;12.61;60.00;98690.20;145151;1258;98961;-76